sensor_id;sensor_type;location;lat;lon;timestamp;pressure;altitude;pressure_sealevel;temperature;humidity
59110;BME280;44895;47.438;18.978;2023-04-05T00:01:39;100375.78;;;2.71;61.87
59110;BME280;44895;47.438;18.978;2023-04-05T00:04:43;100374.41;;;2.80;61.71
59110;BME280;44895;47.438;18.978;2023-04-05T00:07:52;100372.31;;;2.70;63.08
59110;BME280;44895;47.438;18.978;2023-04-05T00:10:56;100375.22;;;2.57;65.14
59110;BME280;44895;47.438;18.978;2023-04-05T00:14:00;100376.25;;;2.44;68.25
59110;BME280;44895;47.438;18.978;2023-04-05T00:17:04;100368.78;;;2.22;69.24
59110;BME280;44895;47.438;18.978;2023-04-05T00:20:08;100364.22;;;2.23;70.62
59110;BME280;44895;47.438;18.978;2023-04-05T00:23:14;100372.25;;;1.99;72.73
59110;BME280;44895;47.438;18.978;2023-04-05T00:26:20;100356.41;;;2.21;70.23
59110;BME280;44895;47.438;18.978;2023-04-05T00:29:28;100361.88;;;2.03;70.41
59110;BME280;44895;47.438;18.978;2023-04-05T00:32:31;100361.28;;;1.89;73.97
59110;BME280;44895;47.438;18.978;2023-04-05T00:35:35;100359.56;;;1.76;78.90
59110;BME280;44895;47.438;18.978;2023-04-05T00:38:39;100358.44;;;1.84;78.37
59110;BME280;44895;47.438;18.978;2023-04-05T00:41:43;100356.72;;;1.89;76.76
59110;BME280;44895;47.438;18.978;2023-04-05T00:44:47;100363.78;;;1.84;76.88
59110;BME280;44895;47.438;18.978;2023-04-05T00:47:51;100368.88;;;1.73;78.17
59110;BME280;44895;47.438;18.978;2023-04-05T00:50:55;100365.41;;;1.73;78.53
59110;BME280;44895;47.438;18.978;2023-04-05T00:54:00;100366.44;;;1.72;76.98
59110;BME280;44895;47.438;18.978;2023-04-05T00:57:04;100365.69;;;1.34;81.25
59110;BME280;44895;47.438;18.978;2023-04-05T01:00:09;100367.41;;;1.47;79.22
59110;BME280;44895;47.438;18.978;2023-04-05T01:03:14;100358.41;;;1.41;78.55
59110;BME280;44895;47.438;18.978;2023-04-05T01:09:52;100355.34;;;1.38;78.57
59110;BME280;44895;47.438;18.978;2023-04-05T01:12:57;100358.69;;;1.03;81.26
59110;BME280;44895;47.438;18.978;2023-04-05T01:16:01;100367.19;;;1.11;83.42
59110;BME280;44895;47.438;18.978;2023-04-05T01:19:04;100362.47;;;1.13;81.72
59110;BME280;44895;47.438;18.978;2023-04-05T01:32:01;100361.78;;;1.00;81.45
59110;BME280;44895;47.438;18.978;2023-04-05T01:38:15;100354.28;;;0.71;87.97
59110;BME280;44895;47.438;18.978;2023-04-05T01:41:21;100358.22;;;0.87;85.82
59110;BME280;44895;47.438;18.978;2023-04-05T01:44:26;100350.72;;;0.77;90.08
59110;BME280;44895;47.438;18.978;2023-04-05T01:47:31;100359.78;;;0.76;89.04
59110;BME280;44895;47.438;18.978;2023-04-05T01:50:35;100354.47;;;0.70;92.28
59110;BME280;44895;47.438;18.978;2023-04-05T01:53:39;100350.97;;;0.51;95.31
59110;BME280;44895;47.438;18.978;2023-04-05T01:56:43;100356.19;;;0.64;94.16
59110;BME280;44895;47.438;18.978;2023-04-05T01:59:47;100350.03;;;0.82;88.76
59110;BME280;44895;47.438;18.978;2023-04-05T02:02:50;100337.56;;;0.76;87.30
59110;BME280;44895;47.438;18.978;2023-04-05T02:05:54;100346.31;;;0.64;89.39
59110;BME280;44895;47.438;18.978;2023-04-05T02:08:58;100347.09;;;0.90;86.49
59110;BME280;44895;47.438;18.978;2023-04-05T02:12:01;100349.81;;;0.65;87.51
59110;BME280;44895;47.438;18.978;2023-04-05T02:15:05;100348.88;;;0.96;86.92
59110;BME280;44895;47.438;18.978;2023-04-05T02:18:10;100349.38;;;0.50;91.32
59110;BME280;44895;47.438;18.978;2023-04-05T02:21:15;100344.03;;;0.68;89.54
59110;BME280;44895;47.438;18.978;2023-04-05T02:24:19;100346.53;;;0.44;93.89
59110;BME280;44895;47.438;18.978;2023-04-05T02:27:23;100342.22;;;0.62;89.20
59110;BME280;44895;47.438;18.978;2023-04-05T02:30:30;100340.72;;;0.47;93.28
59110;BME280;44895;47.438;18.978;2023-04-05T02:33:33;100339.41;;;0.57;89.27
59110;BME280;44895;47.438;18.978;2023-04-05T02:36:40;100346.69;;;0.50;90.72
59110;BME280;44895;47.438;18.978;2023-04-05T02:39:46;100341.75;;;0.46;87.66
59110;BME280;44895;47.438;18.978;2023-04-05T02:42:50;100340.34;;;0.44;87.41
59110;BME280;44895;47.438;18.978;2023-04-05T02:45:54;100341.63;;;0.41;89.26
59110;BME280;44895;47.438;18.978;2023-04-05T02:48:58;100338.56;;;0.38;90.93
59110;BME280;44895;47.438;18.978;2023-04-05T02:52:04;100346.72;;;0.24;96.03
59110;BME280;44895;47.438;18.978;2023-04-05T02:55:08;100336.59;;;0.26;97.35
59110;BME280;44895;47.438;18.978;2023-04-05T02:58:13;100332.38;;;0.62;97.03
59110;BME280;44895;47.438;18.978;2023-04-05T03:01:21;100338.28;;;0.46;97.60
59110;BME280;44895;47.438;18.978;2023-04-05T03:04:25;100334.59;;;0.65;96.83
59110;BME280;44895;47.438;18.978;2023-04-05T03:07:33;100345.34;;;0.59;98.36
59110;BME280;44895;47.438;18.978;2023-04-05T03:10:41;100342.22;;;0.62;97.39
59110;BME280;44895;47.438;18.978;2023-04-05T03:13:51;100337.25;;;0.65;99.77
59110;BME280;44895;47.438;18.978;2023-04-05T03:17:15;100342.34;;;0.74;98.42
59110;BME280;44895;47.438;18.978;2023-04-05T03:20:22;100342.06;;;0.57;100.00
59110;BME280;44895;47.438;18.978;2023-04-05T03:23:27;100339.94;;;0.65;99.49
59110;BME280;44895;47.438;18.978;2023-04-05T03:26:32;100337.72;;;0.81;99.05
59110;BME280;44895;47.438;18.978;2023-04-05T03:29:37;100348.59;;;0.42;100.00
59110;BME280;44895;47.438;18.978;2023-04-05T03:32:48;100345.47;;;0.45;100.00
59110;BME280;44895;47.438;18.978;2023-04-05T03:36:14;100349.72;;;0.53;100.00
59110;BME280;44895;47.438;18.978;2023-04-05T03:39:20;100359.66;;;0.46;100.00
59110;BME280;44895;47.438;18.978;2023-04-05T03:42:24;100352.47;;;0.46;100.00
59110;BME280;44895;47.438;18.978;2023-04-05T03:45:28;100351.66;;;0.46;100.00
59110;BME280;44895;47.438;18.978;2023-04-05T03:48:32;100357.97;;;0.52;100.00
59110;BME280;44895;47.438;18.978;2023-04-05T03:51:35;100360.16;;;0.36;100.00
59110;BME280;44895;47.438;18.978;2023-04-05T03:54:39;100368.13;;;0.43;100.00
59110;BME280;44895;47.438;18.978;2023-04-05T03:57:43;100359.94;;;0.38;100.00
59110;BME280;44895;47.438;18.978;2023-04-05T04:01:13;100367.06;;;0.44;100.00
59110;BME280;44895;47.438;18.978;2023-04-05T04:04:17;100365.97;;;0.33;100.00
59110;BME280;44895;47.438;18.978;2023-04-05T04:07:23;100367.38;;;0.36;100.00
59110;BME280;44895;47.438;18.978;2023-04-05T04:10:27;100366.44;;;0.23;100.00
59110;BME280;44895;47.438;18.978;2023-04-05T04:13:34;100374.00;;;0.26;100.00
59110;BME280;44895;47.438;18.978;2023-04-05T04:16:44;100374.16;;;0.31;100.00
59110;BME280;44895;47.438;18.978;2023-04-05T04:20:06;100368.34;;;0.41;100.00
59110;BME280;44895;47.438;18.978;2023-04-05T04:23:39;100369.28;;;0.28;100.00
59110;BME280;44895;47.438;18.978;2023-04-05T04:27:01;100366.59;;;0.54;100.00
59110;BME280;44895;47.438;18.978;2023-04-05T04:30:25;100368.00;;;0.56;100.00
59110;BME280;44895;47.438;18.978;2023-04-05T04:34:04;100362.50;;;0.51;100.00
59110;BME280;44895;47.438;18.978;2023-04-05T04:37:20;100366.44;;;0.67;99.63
59110;BME280;44895;47.438;18.978;2023-04-05T04:40:45;100367.13;;;0.62;98.23
59110;BME280;44895;47.438;18.978;2023-04-05T04:44:11;100367.78;;;0.58;100.00
59110;BME280;44895;47.438;18.978;2023-04-05T04:47:36;100363.31;;;0.52;99.94
59110;BME280;44895;47.438;18.978;2023-04-05T04:50:51;100375.63;;;0.96;97.86
59110;BME280;44895;47.438;18.978;2023-04-05T04:53:55;100372.94;;;0.78;96.89
59110;BME280;44895;47.438;18.978;2023-04-05T04:56:59;100384.84;;;1.01;96.43
59110;BME280;44895;47.438;18.978;2023-04-05T05:00:04;100382.97;;;1.20;94.06
59110;BME280;44895;47.438;18.978;2023-04-05T05:03:14;100376.00;;;1.00;92.17
59110;BME280;44895;47.438;18.978;2023-04-05T05:06:18;100383.19;;;1.00;94.57
59110;BME280;44895;47.438;18.978;2023-04-05T05:09:24;100380.53;;;1.18;92.04
59110;BME280;44895;47.438;18.978;2023-04-05T05:12:34;100382.31;;;1.24;89.82
59110;BME280;44895;47.438;18.978;2023-04-05T05:15:38;100381.84;;;1.27;92.09
59110;BME280;44895;47.438;18.978;2023-04-05T05:18:43;100381.78;;;1.65;90.25
59110;BME280;44895;47.438;18.978;2023-04-05T05:21:50;100384.38;;;1.71;86.70
59110;BME280;44895;47.438;18.978;2023-04-05T05:24:55;100392.44;;;1.83;85.85
59110;BME280;44895;47.438;18.978;2023-04-05T05:27:59;100397.03;;;1.94;84.26
59110;BME280;44895;47.438;18.978;2023-04-05T05:31:04;100390.63;;;1.95;83.44
59110;BME280;44895;47.438;18.978;2023-04-05T05:34:11;100397.34;;;2.40;81.71
59110;BME280;44895;47.438;18.978;2023-04-05T05:37:17;100390.13;;;2.41;79.06
59110;BME280;44895;47.438;18.978;2023-04-05T05:40:21;100384.19;;;2.39;78.56
59110;BME280;44895;47.438;18.978;2023-04-05T05:43:24;100383.13;;;2.40;78.07
59110;BME280;44895;47.438;18.978;2023-04-05T05:46:28;100390.38;;;2.51;77.47
59110;BME280;44895;47.438;18.978;2023-04-05T05:49:32;100387.94;;;2.50;78.11
59110;BME280;44895;47.438;18.978;2023-04-05T05:52:35;100393.88;;;2.64;76.70
59110;BME280;44895;47.438;18.978;2023-04-05T05:55:39;100385.25;;;2.61;76.87
59110;BME280;44895;47.438;18.978;2023-04-05T05:58:43;100380.53;;;2.92;74.41
59110;BME280;44895;47.438;18.978;2023-04-05T06:01:48;100383.94;;;2.76;73.41
59110;BME280;44895;47.438;18.978;2023-04-05T06:04:53;100381.66;;;3.20;73.48
59110;BME280;44895;47.438;18.978;2023-04-05T06:07:57;100380.81;;;3.32;71.27
59110;BME280;44895;47.438;18.978;2023-04-05T06:11:00;100384.53;;;3.42;70.46
59110;BME280;44895;47.438;18.978;2023-04-05T06:14:04;100383.09;;;3.81;69.47
59110;BME280;44895;47.438;18.978;2023-04-05T06:17:08;100378.69;;;3.74;67.32
59110;BME280;44895;47.438;18.978;2023-04-05T06:20:11;100384.47;;;3.83;66.96
59110;BME280;44895;47.438;18.978;2023-04-05T06:23:15;100382.56;;;4.47;65.53
59110;BME280;44895;47.438;18.978;2023-04-05T06:26:19;100377.66;;;4.61;65.97
59110;BME280;44895;47.438;18.978;2023-04-05T06:29:25;100379.03;;;4.80;63.02
59110;BME280;44895;47.438;18.978;2023-04-05T06:32:28;100367.75;;;5.00;61.37
59110;BME280;44895;47.438;18.978;2023-04-05T06:35:32;100372.06;;;5.73;58.77
59110;BME280;44895;47.438;18.978;2023-04-05T06:38:35;100370.28;;;7.50;54.22
59110;BME280;44895;47.438;18.978;2023-04-05T06:41:39;100361.22;;;12.55;45.21
59110;BME280;44895;47.438;18.978;2023-04-05T06:44:44;100354.38;;;14.78;37.25
59110;BME280;44895;47.438;18.978;2023-04-05T06:47:47;100352.25;;;17.03;35.96
59110;BME280;44895;47.438;18.978;2023-04-05T06:50:57;100350.09;;;18.02;31.97
59110;BME280;44895;47.438;18.978;2023-04-05T06:54:01;100355.94;;;19.29;30.67
59110;BME280;44895;47.438;18.978;2023-04-05T06:57:05;100343.91;;;18.97;30.86
59110;BME280;44895;47.438;18.978;2023-04-05T07:00:09;100344.66;;;20.16;29.46
59110;BME280;44895;47.438;18.978;2023-04-05T07:03:13;100352.78;;;17.47;28.50
59110;BME280;44895;47.438;18.978;2023-04-05T07:06:17;100350.72;;;19.93;28.86
59110;BME280;44895;47.438;18.978;2023-04-05T07:09:21;100344.19;;;20.14;28.81
59110;BME280;44895;47.438;18.978;2023-04-05T07:12:26;100345.56;;;19.51;28.26
59110;BME280;44895;47.438;18.978;2023-04-05T07:15:30;100360.03;;;18.86;28.75
59110;BME280;44895;47.438;18.978;2023-04-05T07:18:34;100363.28;;;18.08;29.86
59110;BME280;44895;47.438;18.978;2023-04-05T07:21:37;100357.38;;;17.55;30.07
59110;BME280;44895;47.438;18.978;2023-04-05T07:24:43;100356.84;;;16.16;29.14
59110;BME280;44895;47.438;18.978;2023-04-05T07:27:47;100353.25;;;17.91;29.09
59110;BME280;44895;47.438;18.978;2023-04-05T07:30:50;100341.84;;;20.44;27.88
59110;BME280;44895;47.438;18.978;2023-04-05T07:33:53;100357.78;;;20.67;26.49
59110;BME280;44895;47.438;18.978;2023-04-05T07:36:57;100340.50;;;19.40;28.02
59110;BME280;44895;47.438;18.978;2023-04-05T07:40:01;100330.97;;;20.35;27.79
59110;BME280;44895;47.438;18.978;2023-04-05T07:43:06;100345.59;;;19.26;27.56
59110;BME280;44895;47.438;18.978;2023-04-05T07:46:09;100336.06;;;22.08;25.70
59110;BME280;44895;47.438;18.978;2023-04-05T07:49:13;100331.41;;;22.55;25.04
59110;BME280;44895;47.438;18.978;2023-04-05T07:52:16;100332.44;;;22.70;24.13
59110;BME280;44895;47.438;18.978;2023-04-05T07:55:20;100331.34;;;24.23;24.40
59110;BME280;44895;47.438;18.978;2023-04-05T07:58:24;100340.06;;;19.51;25.78
59110;BME280;44895;47.438;18.978;2023-04-05T08:01:27;100344.28;;;16.71;30.09
59110;BME280;44895;47.438;18.978;2023-04-05T08:04:31;100331.41;;;18.29;28.48
59110;BME280;44895;47.438;18.978;2023-04-05T08:07:34;100323.06;;;21.89;25.73
59110;BME280;44895;47.438;18.978;2023-04-05T08:10:38;100322.66;;;19.75;25.37
59110;BME280;44895;47.438;18.978;2023-04-05T08:13:42;100330.91;;;18.60;27.65
59110;BME280;44895;47.438;18.978;2023-04-05T08:16:46;100333.69;;;17.51;28.57
59110;BME280;44895;47.438;18.978;2023-04-05T08:19:49;100332.69;;;17.34;29.21
59110;BME280;44895;47.438;18.978;2023-04-05T08:22:54;100338.16;;;14.27;30.84
59110;BME280;44895;47.438;18.978;2023-04-05T08:25:58;100331.72;;;15.96;30.66
59110;BME280;44895;47.438;18.978;2023-04-05T08:29:02;100327.69;;;15.76;29.06
59110;BME280;44895;47.438;18.978;2023-04-05T08:32:06;100337.28;;;14.41;32.74
59110;BME280;44895;47.438;18.978;2023-04-05T08:35:11;100336.13;;;14.10;34.84
59110;BME280;44895;47.438;18.978;2023-04-05T08:38:14;100332.69;;;14.27;33.41
59110;BME280;44895;47.438;18.978;2023-04-05T08:41:18;100333.63;;;14.54;32.93
59110;BME280;44895;47.438;18.978;2023-04-05T08:44:23;100328.22;;;14.63;32.90
59110;BME280;44895;47.438;18.978;2023-04-05T08:47:28;100322.41;;;14.87;33.91
59110;BME280;44895;47.438;18.978;2023-04-05T08:50:32;100327.19;;;15.39;32.87
59110;BME280;44895;47.438;18.978;2023-04-05T08:53:36;100324.97;;;14.83;33.47
59110;BME280;44895;47.438;18.978;2023-04-05T08:56:39;100320.19;;;15.07;33.28
59110;BME280;44895;47.438;18.978;2023-04-05T08:59:44;100316.41;;;15.43;33.31
59110;BME280;44895;47.438;18.978;2023-04-05T09:02:50;100307.19;;;15.04;33.51
59110;BME280;44895;47.438;18.978;2023-04-05T09:05:57;100310.94;;;15.69;32.83
59110;BME280;44895;47.438;18.978;2023-04-05T09:09:04;100329.03;;;12.99;34.61
59110;BME280;44895;47.438;18.978;2023-04-05T09:12:08;100316.69;;;15.15;33.99
59110;BME280;44895;47.438;18.978;2023-04-05T09:15:11;100318.69;;;16.58;32.13
59110;BME280;44895;47.438;18.978;2023-04-05T09:18:16;100317.09;;;14.50;32.11
59110;BME280;44895;47.438;18.978;2023-04-05T09:21:20;100325.28;;;12.95;36.19
59110;BME280;44895;47.438;18.978;2023-04-05T09:24:36;100330.94;;;12.57;35.29
59110;BME280;44895;47.438;18.978;2023-04-05T09:27:53;100328.84;;;12.35;36.10
59110;BME280;44895;47.438;18.978;2023-04-05T09:30:57;100322.25;;;12.55;35.80
59110;BME280;44895;47.438;18.978;2023-04-05T09:34:02;100316.97;;;12.45;36.58
59110;BME280;44895;47.438;18.978;2023-04-05T09:37:15;100324.78;;;12.18;36.68
59110;BME280;44895;47.438;18.978;2023-04-05T09:40:19;100312.72;;;12.38;36.67
59110;BME280;44895;47.438;18.978;2023-04-05T09:43:39;100315.88;;;12.46;37.47
59110;BME280;44895;47.438;18.978;2023-04-05T09:46:42;100308.47;;;12.32;36.57
59110;BME280;44895;47.438;18.978;2023-04-05T09:49:46;100304.78;;;12.56;37.95
59110;BME280;44895;47.438;18.978;2023-04-05T09:52:50;100303.38;;;11.98;37.81
59110;BME280;44895;47.438;18.978;2023-04-05T09:55:59;100307.28;;;12.38;37.07
59110;BME280;44895;47.438;18.978;2023-04-05T09:59:11;100293.63;;;12.11;37.10
59110;BME280;44895;47.438;18.978;2023-04-05T10:02:14;100294.91;;;11.61;37.21
59110;BME280;44895;47.438;18.978;2023-04-05T10:05:18;100302.22;;;11.66;38.96
59110;BME280;44895;47.438;18.978;2023-04-05T10:08:21;100300.28;;;11.47;37.67
59110;BME280;44895;47.438;18.978;2023-04-05T10:11:25;100300.63;;;10.54;38.51
59110;BME280;44895;47.438;18.978;2023-04-05T10:14:30;100296.31;;;11.20;38.82
59110;BME280;44895;47.438;18.978;2023-04-05T10:20:47;100290.88;;;11.20;38.42
59110;BME280;44895;47.438;18.978;2023-04-05T10:24:00;100282.56;;;11.31;37.54
59110;BME280;44895;47.438;18.978;2023-04-05T10:27:08;100284.06;;;11.42;38.41
59110;BME280;44895;47.438;18.978;2023-04-05T10:30:15;100275.59;;;11.43;38.24
59110;BME280;44895;47.438;18.978;2023-04-05T10:33:19;100279.13;;;11.25;38.61
59110;BME280;44895;47.438;18.978;2023-04-05T10:36:34;100285.63;;;10.86;38.25
59110;BME280;44895;47.438;18.978;2023-04-05T10:39:43;100287.94;;;10.73;38.77
59110;BME280;44895;47.438;18.978;2023-04-05T10:42:48;100289.66;;;10.05;39.19
59110;BME280;44895;47.438;18.978;2023-04-05T10:45:53;100281.47;;;10.10;38.35
59110;BME280;44895;47.438;18.978;2023-04-05T10:49:03;100284.97;;;9.87;38.75
59110;BME280;44895;47.438;18.978;2023-04-05T10:52:09;100276.28;;;9.85;38.56
59110;BME280;44895;47.438;18.978;2023-04-05T10:55:13;100266.31;;;10.39;39.24
59110;BME280;44895;47.438;18.978;2023-04-05T10:58:18;100269.59;;;10.84;38.85
59110;BME280;44895;47.438;18.978;2023-04-05T11:01:22;100250.28;;;10.86;38.65
59110;BME280;44895;47.438;18.978;2023-04-05T11:04:26;100249.91;;;10.73;37.98
59110;BME280;44895;47.438;18.978;2023-04-05T11:07:42;100247.97;;;11.17;39.15
59110;BME280;44895;47.438;18.978;2023-04-05T11:10:46;100257.38;;;11.25;38.44
59110;BME280;44895;47.438;18.978;2023-04-05T11:13:54;100256.06;;;11.22;38.60
59110;BME280;44895;47.438;18.978;2023-04-05T11:16:58;100248.09;;;10.88;38.76
59110;BME280;44895;47.438;18.978;2023-04-05T11:20:05;100259.84;;;11.59;38.90
59110;BME280;44895;47.438;18.978;2023-04-05T11:23:14;100251.72;;;11.02;38.30
59110;BME280;44895;47.438;18.978;2023-04-05T11:26:18;100246.56;;;11.01;38.06
59110;BME280;44895;47.438;18.978;2023-04-05T11:32:44;100247.94;;;10.98;37.61
59110;BME280;44895;47.438;18.978;2023-04-05T11:35:58;100242.72;;;10.83;37.46
59110;BME280;44895;47.438;18.978;2023-04-05T11:42:21;100244.47;;;10.73;37.89
59110;BME280;44895;47.438;18.978;2023-04-05T11:45:25;100241.78;;;10.92;36.29
59110;BME280;44895;47.438;18.978;2023-04-05T11:48:28;100243.41;;;10.93;35.46
59110;BME280;44895;47.438;18.978;2023-04-05T11:51:32;100230.38;;;10.47;36.40
59110;BME280;44895;47.438;18.978;2023-04-05T11:54:35;100225.88;;;10.62;34.52
59110;BME280;44895;47.438;18.978;2023-04-05T11:57:39;100221.22;;;10.86;35.71
59110;BME280;44895;47.438;18.978;2023-04-05T12:00:44;100222.84;;;11.06;37.17
59110;BME280;44895;47.438;18.978;2023-04-05T12:03:52;100217.03;;;11.13;37.27
59110;BME280;44895;47.438;18.978;2023-04-05T12:10:13;100224.75;;;11.06;36.89
59110;BME280;44895;47.438;18.978;2023-04-05T12:13:28;100217.75;;;10.81;38.18
59110;BME280;44895;47.438;18.978;2023-04-05T12:16:31;100207.41;;;10.83;36.31
59110;BME280;44895;47.438;18.978;2023-04-05T12:19:34;100218.72;;;11.28;37.05
59110;BME280;44895;47.438;18.978;2023-04-05T12:22:40;100217.47;;;11.20;38.48
59110;BME280;44895;47.438;18.978;2023-04-05T12:25:50;100208.63;;;10.71;34.94
59110;BME280;44895;47.438;18.978;2023-04-05T12:28:57;100205.84;;;10.76;36.94
59110;BME280;44895;47.438;18.978;2023-04-05T12:32:01;100199.94;;;10.93;36.02
59110;BME280;44895;47.438;18.978;2023-04-05T12:35:50;100200.50;;;10.90;35.55
59110;BME280;44895;47.438;18.978;2023-04-05T12:38:37;100196.97;;;10.90;36.62
59110;BME280;44895;47.438;18.978;2023-04-05T12:41:41;100198.38;;;11.06;36.78
59110;BME280;44895;47.438;18.978;2023-04-05T12:44:44;100200.38;;;11.01;37.52
59110;BME280;44895;47.438;18.978;2023-04-05T12:48:08;100194.50;;;11.13;37.54
59110;BME280;44895;47.438;18.978;2023-04-05T12:51:13;100192.31;;;10.71;35.70
59110;BME280;44895;47.438;18.978;2023-04-05T12:54:19;100188.34;;;10.64;35.85
59110;BME280;44895;47.438;18.978;2023-04-05T12:57:28;100186.19;;;11.04;37.33
59110;BME280;44895;47.438;18.978;2023-04-05T13:00:32;100182.72;;;10.98;35.98
59110;BME280;44895;47.438;18.978;2023-04-05T13:03:36;100174.69;;;10.50;34.61
59110;BME280;44895;47.438;18.978;2023-04-05T13:06:39;100165.91;;;10.96;34.89
59110;BME280;44895;47.438;18.978;2023-04-05T13:09:42;100171.19;;;10.68;35.15
59110;BME280;44895;47.438;18.978;2023-04-05T13:12:46;100161.16;;;10.44;35.13
59110;BME280;44895;47.438;18.978;2023-04-05T13:15:50;100160.88;;;10.89;36.07
59110;BME280;44895;47.438;18.978;2023-04-05T13:18:53;100164.53;;;10.99;35.81
59110;BME280;44895;47.438;18.978;2023-04-05T13:21:57;100169.91;;;10.41;35.23
59110;BME280;44895;47.438;18.978;2023-04-05T13:25:00;100158.78;;;10.81;35.33
59110;BME280;44895;47.438;18.978;2023-04-05T13:28:04;100169.53;;;10.24;35.56
59110;BME280;44895;47.438;18.978;2023-04-05T13:31:07;100160.25;;;10.30;36.02
59110;BME280;44895;47.438;18.978;2023-04-05T13:34:11;100160.16;;;10.35;36.19
59110;BME280;44895;47.438;18.978;2023-04-05T13:37:14;100161.41;;;10.48;36.09
59110;BME280;44895;47.438;18.978;2023-04-05T13:40:18;100162.41;;;10.28;36.17
59110;BME280;44895;47.438;18.978;2023-04-05T13:43:22;100152.47;;;10.18;36.94
59110;BME280;44895;47.438;18.978;2023-04-05T13:46:25;100157.59;;;10.01;36.58
59110;BME280;44895;47.438;18.978;2023-04-05T13:49:29;100146.38;;;9.83;35.91
59110;BME280;44895;47.438;18.978;2023-04-05T13:52:32;100146.81;;;9.90;36.11
59110;BME280;44895;47.438;18.978;2023-04-05T13:55:36;100145.56;;;10.31;37.66
59110;BME280;44895;47.438;18.978;2023-04-05T13:58:41;100149.94;;;10.27;38.03
59110;BME280;44895;47.438;18.978;2023-04-05T14:01:45;100149.53;;;9.90;36.81
59110;BME280;44895;47.438;18.978;2023-04-05T14:04:49;100154.28;;;10.04;38.00
59110;BME280;44895;47.438;18.978;2023-04-05T14:07:52;100149.88;;;10.32;37.34
59110;BME280;44895;47.438;18.978;2023-04-05T14:10:55;100146.50;;;10.21;36.89
59110;BME280;44895;47.438;18.978;2023-04-05T14:13:59;100155.09;;;10.28;36.57
59110;BME280;44895;47.438;18.978;2023-04-05T14:17:02;100143.56;;;10.42;37.19
59110;BME280;44895;47.438;18.978;2023-04-05T14:20:06;100146.50;;;10.21;36.10
59110;BME280;44895;47.438;18.978;2023-04-05T14:23:10;100142.94;;;10.21;36.44
59110;BME280;44895;47.438;18.978;2023-04-05T14:26:14;100133.47;;;10.18;37.70
59110;BME280;44895;47.438;18.978;2023-04-05T14:29:17;100138.53;;;9.76;37.08
59110;BME280;44895;47.438;18.978;2023-04-05T14:32:22;100132.56;;;10.04;37.83
59110;BME280;44895;47.438;18.978;2023-04-05T14:35:26;100125.28;;;10.23;38.14
59110;BME280;44895;47.438;18.978;2023-04-05T14:38:30;100128.72;;;10.10;37.86
59110;BME280;44895;47.438;18.978;2023-04-05T14:41:34;100139.94;;;9.98;38.81
59110;BME280;44895;47.438;18.978;2023-04-05T14:44:37;100136.66;;;10.25;38.03
59110;BME280;44895;47.438;18.978;2023-04-05T14:47:41;100150.78;;;10.03;37.94
59110;BME280;44895;47.438;18.978;2023-04-05T14:50:45;100147.66;;;10.15;37.46
59110;BME280;44895;47.438;18.978;2023-04-05T14:53:48;100133.31;;;10.34;36.86
59110;BME280;44895;47.438;18.978;2023-04-05T14:56:53;100141.97;;;9.87;39.55
59110;BME280;44895;47.438;18.978;2023-04-05T14:59:57;100142.81;;;9.83;37.60
59110;BME280;44895;47.438;18.978;2023-04-05T15:03:00;100144.75;;;9.82;38.98
59110;BME280;44895;47.438;18.978;2023-04-05T15:06:04;100148.31;;;9.77;37.92
59110;BME280;44895;47.438;18.978;2023-04-05T15:09:07;100152.06;;;9.82;37.27
59110;BME280;44895;47.438;18.978;2023-04-05T15:12:11;100155.72;;;9.96;38.14
59110;BME280;44895;47.438;18.978;2023-04-05T15:15:14;100148.72;;;9.90;37.60
59110;BME280;44895;47.438;18.978;2023-04-05T15:18:18;100151.78;;;9.83;37.81
59110;BME280;44895;47.438;18.978;2023-04-05T15:21:22;100159.13;;;9.19;38.56
59110;BME280;44895;47.438;18.978;2023-04-05T15:24:26;100166.06;;;9.65;38.89
59110;BME280;44895;47.438;18.978;2023-04-05T15:27:29;100156.78;;;9.41;38.86
59110;BME280;44895;47.438;18.978;2023-04-05T15:30:34;100158.91;;;9.44;36.36
59110;BME280;44895;47.438;18.978;2023-04-05T15:33:37;100155.28;;;9.25;37.65
59110;BME280;44895;47.438;18.978;2023-04-05T15:36:41;100162.25;;;9.36;40.08
59110;BME280;44895;47.438;18.978;2023-04-05T15:39:44;100159.75;;;9.45;37.52
59110;BME280;44895;47.438;18.978;2023-04-05T15:42:48;100163.53;;;9.44;37.69
59110;BME280;44895;47.438;18.978;2023-04-05T15:45:52;100158.72;;;9.36;37.56
59110;BME280;44895;47.438;18.978;2023-04-05T15:48:55;100147.16;;;9.25;36.81
59110;BME280;44895;47.438;18.978;2023-04-05T15:51:59;100164.69;;;8.93;38.50
59110;BME280;44895;47.438;18.978;2023-04-05T15:55:02;100165.41;;;9.09;39.82
59110;BME280;44895;47.438;18.978;2023-04-05T15:58:06;100172.59;;;9.29;40.33
59110;BME280;44895;47.438;18.978;2023-04-05T16:01:09;100168.84;;;9.25;38.20
59110;BME280;44895;47.438;18.978;2023-04-05T16:04:13;100163.41;;;9.25;38.89
59110;BME280;44895;47.438;18.978;2023-04-05T16:07:17;100171.44;;;8.95;37.26
59110;BME280;44895;47.438;18.978;2023-04-05T16:10:20;100162.00;;;8.93;37.15
59110;BME280;44895;47.438;18.978;2023-04-05T16:13:23;100161.44;;;8.96;36.99
59110;BME280;44895;47.438;18.978;2023-04-05T16:16:27;100172.06;;;8.87;37.67
59110;BME280;44895;47.438;18.978;2023-04-05T16:19:31;100173.69;;;8.88;36.58
59110;BME280;44895;47.438;18.978;2023-04-05T16:22:35;100169.13;;;8.78;38.71
59110;BME280;44895;47.438;18.978;2023-04-05T16:25:39;100172.63;;;8.79;39.23
59110;BME280;44895;47.438;18.978;2023-04-05T16:28:43;100176.97;;;8.80;39.56
59110;BME280;44895;47.438;18.978;2023-04-05T16:31:46;100173.13;;;8.86;40.22
59110;BME280;44895;47.438;18.978;2023-04-05T16:34:50;100175.31;;;8.84;39.94